sensor_id;sensor_type;location;lat;lon;timestamp;P1;durP1;ratioP1;P2;durP2;ratioP2
43182;SDS011;28802;38.578;-0.066;2022-12-18T00:00:46;3.67;;;3.17;;
43182;SDS011;28802;38.578;-0.066;2022-12-18T00:03:13;5.57;;;3.70;;
43182;SDS011;28802;38.578;-0.066;2022-12-18T00:05:46;6.10;;;4.30;;
43182;SDS011;28802;38.578;-0.066;2022-12-18T00:08:16;11.67;;;4.93;;
43182;SDS011;28802;38.578;-0.066;2022-12-18T00:10:42;7.30;;;4.37;;
43182;SDS011;28802;38.578;-0.066;2022-12-18T00:13:09;6.90;;;4.83;;
43182;SDS011;28802;38.578;-0.066;2022-12-18T00:15:36;6.57;;;4.50;;
43182;SDS011;28802;38.578;-0.066;2022-12-18T00:18:04;7.13;;;4.60;;
43182;SDS011;28802;38.578;-0.066;2022-12-18T00:20:30;7.30;;;4.73;;
43182;SDS011;28802;38.578;-0.066;2022-12-18T00:22:56;6.37;;;4.97;;
43182;SDS011;28802;38.578;-0.066;2022-12-18T00:25:22;9.40;;;3.60;;
43182;SDS011;28802;38.578;-0.066;2022-12-18T00:27:48;6.63;;;3.80;;
43182;SDS011;28802;38.578;-0.066;2022-12-18T00:30:14;3.40;;;3.10;;
43182;SDS011;28802;38.578;-0.066;2022-12-18T00:32:40;8.20;;;4.03;;
43182;SDS011;28802;38.578;-0.066;2022-12-18T00:35:06;5.27;;;3.20;;
43182;SDS011;28802;38.578;-0.066;2022-12-18T00:37:33;3.83;;;2.97;;
43182;SDS011;28802;38.578;-0.066;2022-12-18T00:39:59;3.73;;;2.80;;
43182;SDS011;28802;38.578;-0.066;2022-12-18T00:42:27;10.63;;;3.93;;
43182;SDS011;28802;38.578;-0.066;2022-12-18T00:45:11;6.37;;;3.87;;
43182;SDS011;28802;38.578;-0.066;2022-12-18T00:47:37;13.83;;;4.37;;
43182;SDS011;28802;38.578;-0.066;2022-12-18T00:50:03;5.43;;;4.00;;
43182;SDS011;28802;38.578;-0.066;2022-12-18T00:52:30;5.70;;;3.83;;
43182;SDS011;28802;38.578;-0.066;2022-12-18T00:54:55;6.60;;;4.07;;
43182;SDS011;28802;38.578;-0.066;2022-12-18T00:57:21;6.60;;;3.70;;
43182;SDS011;28802;38.578;-0.066;2022-12-18T00:59:47;6.07;;;3.27;;
43182;SDS011;28802;38.578;-0.066;2022-12-18T01:02:13;5.60;;;3.73;;
43182;SDS011;28802;38.578;-0.066;2022-12-18T01:04:39;3.17;;;2.70;;
43182;SDS011;28802;38.578;-0.066;2022-12-18T01:07:05;4.43;;;3.07;;
43182;SDS011;28802;38.578;-0.066;2022-12-18T01:09:33;5.80;;;3.23;;
43182;SDS011;28802;38.578;-0.066;2022-12-18T01:11:59;4.87;;;3.60;;
43182;SDS011;28802;38.578;-0.066;2022-12-18T01:14:25;5.43;;;3.23;;
43182;SDS011;28802;38.578;-0.066;2022-12-18T01:16:52;3.80;;;2.63;;
43182;SDS011;28802;38.578;-0.066;2022-12-18T01:19:17;3.40;;;2.30;;
43182;SDS011;28802;38.578;-0.066;2022-12-18T01:21:45;3.97;;;2.53;;
43182;SDS011;28802;38.578;-0.066;2022-12-18T01:24:12;4.90;;;2.43;;
43182;SDS011;28802;38.578;-0.066;2022-12-18T01:26:38;3.83;;;2.50;;
43182;SDS011;28802;38.578;-0.066;2022-12-18T01:29:04;3.57;;;2.40;;
43182;SDS011;28802;38.578;-0.066;2022-12-18T01:31:30;20.50;;;11.43;;
43182;SDS011;28802;38.578;-0.066;2022-12-18T01:34:01;13.63;;;5.07;;
43182;SDS011;28802;38.578;-0.066;2022-12-18T01:36:29;3.80;;;3.07;;
43182;SDS011;28802;38.578;-0.066;2022-12-18T01:39:00;3.00;;;2.67;;
43182;SDS011;28802;38.578;-0.066;2022-12-18T01:41:28;2.83;;;2.20;;
43182;SDS011;28802;38.578;-0.066;2022-12-18T01:47:18;5.03;;;2.50;;
43182;SDS011;28802;38.578;-0.066;2022-12-18T01:49:45;1.87;;;1.77;;
43182;SDS011;28802;38.578;-0.066;2022-12-18T01:52:11;4.87;;;2.60;;
43182;SDS011;28802;38.578;-0.066;2022-12-18T01:54:38;2.80;;;1.80;;
43182;SDS011;28802;38.578;-0.066;2022-12-18T01:57:04;6.60;;;2.70;;
43182;SDS011;28802;38.578;-0.066;2022-12-18T01:59:31;3.87;;;2.67;;
43182;SDS011;28802;38.578;-0.066;2022-12-18T02:01:59;3.00;;;2.23;;
43182;SDS011;28802;38.578;-0.066;2022-12-18T02:04:26;2.30;;;2.10;;
43182;SDS011;28802;38.578;-0.066;2022-12-18T02:09:39;3.40;;;2.37;;
43182;SDS011;28802;38.578;-0.066;2022-12-18T02:17:43;2.17;;;1.90;;
43182;SDS011;28802;38.578;-0.066;2022-12-18T02:28:20;2.47;;;1.50;;
43182;SDS011;28802;38.578;-0.066;2022-12-18T02:30:49;3.77;;;2.40;;
43182;SDS011;28802;38.578;-0.066;2022-12-18T02:33:18;2.60;;;1.67;;
43182;SDS011;28802;38.578;-0.066;2022-12-18T02:35:46;3.57;;;1.40;;
43182;SDS011;28802;38.578;-0.066;2022-12-18T02:38:13;3.37;;;1.90;;
43182;SDS011;28802;38.578;-0.066;2022-12-18T02:40:43;3.30;;;1.50;;
43182;SDS011;28802;38.578;-0.066;2022-12-18T02:43:13;1.50;;;1.20;;
43182;SDS011;28802;38.578;-0.066;2022-12-18T02:45:50;1.50;;;1.40;;
43182;SDS011;28802;38.578;-0.066;2022-12-18T02:48:24;2.07;;;1.60;;
43182;SDS011;28802;38.578;-0.066;2022-12-18T02:50:58;6.87;;;2.20;;
43182;SDS011;28802;38.578;-0.066;2022-12-18T02:53:45;1.93;;;1.10;;
43182;SDS011;28802;38.578;-0.066;2022-12-18T02:56:24;9.17;;;2.00;;
43182;SDS011;28802;38.578;-0.066;2022-12-18T02:59:09;1.77;;;1.33;;
43182;SDS011;28802;38.578;-0.066;2022-12-18T03:01:54;1.50;;;1.40;;
43182;SDS011;28802;38.578;-0.066;2022-12-18T03:07:20;2.33;;;1.70;;
43182;SDS011;28802;38.578;-0.066;2022-12-18T03:09:54;2.80;;;1.37;;
43182;SDS011;28802;38.578;-0.066;2022-12-18T03:12:28;4.17;;;1.40;;
43182;SDS011;28802;38.578;-0.066;2022-12-18T03:15:04;3.33;;;1.73;;
43182;SDS011;28802;38.578;-0.066;2022-12-18T03:18:03;1.87;;;1.20;;
43182;SDS011;28802;38.578;-0.066;2022-12-18T03:20:34;1.97;;;1.30;;
43182;SDS011;28802;38.578;-0.066;2022-12-18T03:23:10;3.10;;;1.47;;
43182;SDS011;28802;38.578;-0.066;2022-12-18T03:25:44;2.70;;;1.70;;
43182;SDS011;28802;38.578;-0.066;2022-12-18T03:28:14;5.30;;;1.83;;
43182;SDS011;28802;38.578;-0.066;2022-12-18T03:30:45;3.00;;;1.20;;
43182;SDS011;28802;38.578;-0.066;2022-12-18T03:33:25;4.67;;;1.53;;
43182;SDS011;28802;38.578;-0.066;2022-12-18T03:35:54;1.43;;;1.20;;
43182;SDS011;28802;38.578;-0.066;2022-12-18T03:38:21;1.67;;;1.17;;
43182;SDS011;28802;38.578;-0.066;2022-12-18T03:40:57;1.70;;;1.23;;
43182;SDS011;28802;38.578;-0.066;2022-12-18T03:43:45;1.70;;;1.30;;
43182;SDS011;28802;38.578;-0.066;2022-12-18T03:52:17;3.00;;;1.23;;
43182;SDS011;28802;38.578;-0.066;2022-12-18T03:54:51;1.63;;;1.20;;
43182;SDS011;28802;38.578;-0.066;2022-12-18T03:57:20;1.20;;;1.10;;
43182;SDS011;28802;38.578;-0.066;2022-12-18T03:59:54;3.03;;;1.23;;
43182;SDS011;28802;38.578;-0.066;2022-12-18T04:02:28;4.47;;;1.40;;
43182;SDS011;28802;38.578;-0.066;2022-12-18T04:04:58;2.17;;;1.13;;
43182;SDS011;28802;38.578;-0.066;2022-12-18T04:07:30;1.90;;;1.10;;
43182;SDS011;28802;38.578;-0.066;2022-12-18T04:09:57;1.20;;;0.97;;
43182;SDS011;28802;38.578;-0.066;2022-12-18T04:12:25;2.73;;;1.50;;
43182;SDS011;28802;38.578;-0.066;2022-12-18T04:14:54;1.40;;;1.13;;
43182;SDS011;28802;38.578;-0.066;2022-12-18T04:17:21;2.00;;;1.27;;
43182;SDS011;28802;38.578;-0.066;2022-12-18T04:19:48;1.23;;;0.87;;
43182;SDS011;28802;38.578;-0.066;2022-12-18T04:22:16;1.23;;;1.13;;
43182;SDS011;28802;38.578;-0.066;2022-12-18T04:24:45;1.47;;;1.20;;
43182;SDS011;28802;38.578;-0.066;2022-12-18T04:27:23;1.47;;;0.70;;
43182;SDS011;28802;38.578;-0.066;2022-12-18T04:29:50;4.30;;;1.07;;
43182;SDS011;28802;38.578;-0.066;2022-12-18T04:32:16;1.57;;;0.87;;
43182;SDS011;28802;38.578;-0.066;2022-12-18T04:34:43;1.77;;;1.00;;
43182;SDS011;28802;38.578;-0.066;2022-12-18T04:37:09;2.10;;;1.03;;
43182;SDS011;28802;38.578;-0.066;2022-12-18T04:39:37;2.10;;;0.77;;
43182;SDS011;28802;38.578;-0.066;2022-12-18T04:42:09;2.07;;;1.07;;
43182;SDS011;28802;38.578;-0.066;2022-12-18T04:44:34;1.40;;;0.90;;
43182;SDS011;28802;38.578;-0.066;2022-12-18T04:47:01;2.23;;;0.90;;
43182;SDS011;28802;38.578;-0.066;2022-12-18T04:49:27;1.60;;;1.00;;
43182;SDS011;28802;38.578;-0.066;2022-12-18T04:51:53;2.10;;;1.07;;
43182;SDS011;28802;38.578;-0.066;2022-12-18T04:54:19;1.67;;;0.93;;
43182;SDS011;28802;38.578;-0.066;2022-12-18T04:56:46;1.57;;;1.07;;
43182;SDS011;28802;38.578;-0.066;2022-12-18T04:59:12;2.30;;;1.03;;
43182;SDS011;28802;38.578;-0.066;2022-12-18T05:01:38;1.10;;;0.70;;
43182;SDS011;28802;38.578;-0.066;2022-12-18T05:04:04;1.70;;;0.80;;
43182;SDS011;28802;38.578;-0.066;2022-12-18T05:06:30;5.20;;;0.90;;
43182;SDS011;28802;38.578;-0.066;2022-12-18T05:08:56;1.60;;;1.00;;
43182;SDS011;28802;38.578;-0.066;2022-12-18T05:11:22;1.13;;;0.90;;
43182;SDS011;28802;38.578;-0.066;2022-12-18T05:13:48;1.20;;;1.00;;
43182;SDS011;28802;38.578;-0.066;2022-12-18T05:16:14;2.60;;;1.40;;
43182;SDS011;28802;38.578;-0.066;2022-12-18T05:18:40;2.00;;;1.60;;
43182;SDS011;28802;38.578;-0.066;2022-12-18T05:21:07;6.00;;;1.80;;
43182;SDS011;28802;38.578;-0.066;2022-12-18T05:23:33;4.73;;;1.70;;
43182;SDS011;28802;38.578;-0.066;2022-12-18T05:26:00;2.13;;;1.33;;
43182;SDS011;28802;38.578;-0.066;2022-12-18T05:28:28;2.00;;;1.60;;
43182;SDS011;28802;38.578;-0.066;2022-12-18T05:30:56;2.70;;;1.73;;
43182;SDS011;28802;38.578;-0.066;2022-12-18T05:33:24;2.27;;;1.40;;
43182;SDS011;28802;38.578;-0.066;2022-12-18T05:35:54;2.63;;;1.37;;
43182;SDS011;28802;38.578;-0.066;2022-12-18T05:38:22;1.77;;;1.00;;
43182;SDS011;28802;38.578;-0.066;2022-12-18T05:40:50;1.47;;;1.10;;
43182;SDS011;28802;38.578;-0.066;2022-12-18T05:43:17;3.70;;;1.77;;
43182;SDS011;28802;38.578;-0.066;2022-12-18T05:45:44;1.90;;;1.13;;
43182;SDS011;28802;38.578;-0.066;2022-12-18T05:48:10;1.30;;;1.07;;
43182;SDS011;28802;38.578;-0.066;2022-12-18T05:50:40;3.27;;;1.10;;
43182;SDS011;28802;38.578;-0.066;2022-12-18T05:53:07;2.03;;;1.20;;
43182;SDS011;28802;38.578;-0.066;2022-12-18T05:55:37;1.43;;;1.20;;
43182;SDS011;28802;38.578;-0.066;2022-12-18T05:58:05;3.83;;;1.30;;
43182;SDS011;28802;38.578;-0.066;2022-12-18T06:00:32;5.33;;;0.97;;
43182;SDS011;28802;38.578;-0.066;2022-12-18T06:03:00;0.97;;;0.60;;
43182;SDS011;28802;38.578;-0.066;2022-12-18T06:05:26;3.20;;;1.40;;
43182;SDS011;28802;38.578;-0.066;2022-12-18T06:07:52;3.50;;;1.20;;
43182;SDS011;28802;38.578;-0.066;2022-12-18T06:10:18;1.57;;;1.30;;
43182;SDS011;28802;38.578;-0.066;2022-12-18T06:12:44;2.20;;;1.40;;
43182;SDS011;28802;38.578;-0.066;2022-12-18T06:15:10;1.00;;;0.87;;
43182;SDS011;28802;38.578;-0.066;2022-12-18T06:17:36;1.33;;;0.83;;
43182;SDS011;28802;38.578;-0.066;2022-12-18T06:20:03;1.67;;;0.70;;
43182;SDS011;28802;38.578;-0.066;2022-12-18T06:22:32;1.27;;;0.80;;
43182;SDS011;28802;38.578;-0.066;2022-12-18T06:25:00;2.30;;;0.83;;
43182;SDS011;28802;38.578;-0.066;2022-12-18T06:27:26;1.57;;;1.23;;
43182;SDS011;28802;38.578;-0.066;2022-12-18T06:29:55;4.00;;;0.90;;
43182;SDS011;28802;38.578;-0.066;2022-12-18T06:32:21;2.10;;;1.40;;
43182;SDS011;28802;38.578;-0.066;2022-12-18T06:34:47;1.37;;;0.90;;
43182;SDS011;28802;38.578;-0.066;2022-12-18T06:37:12;2.40;;;1.00;;
43182;SDS011;28802;38.578;-0.066;2022-12-18T06:39:38;1.53;;;1.07;;
43182;SDS011;28802;38.578;-0.066;2022-12-18T06:42:04;1.63;;;1.10;;
43182;SDS011;28802;38.578;-0.066;2022-12-18T06:44:30;1.90;;;0.90;;
43182;SDS011;28802;38.578;-0.066;2022-12-18T06:46:56;2.33;;;1.13;;
43182;SDS011;28802;38.578;-0.066;2022-12-18T06:49:22;1.83;;;0.87;;
43182;SDS011;28802;38.578;-0.066;2022-12-18T06:51:48;2.20;;;0.80;;
43182;SDS011;28802;38.578;-0.066;2022-12-18T06:54:14;1.97;;;0.83;;
43182;SDS011;28802;38.578;-0.066;2022-12-18T06:56:40;3.47;;;1.00;;
43182;SDS011;28802;38.578;-0.066;2022-12-18T06:59:06;1.10;;;0.93;;
43182;SDS011;28802;38.578;-0.066;2022-12-18T07:01:31;4.70;;;1.23;;
43182;SDS011;28802;38.578;-0.066;2022-12-18T07:03:57;2.13;;;1.20;;
43182;SDS011;28802;38.578;-0.066;2022-12-18T07:06:24;2.20;;;1.27;;
43182;SDS011;28802;38.578;-0.066;2022-12-18T07:08:51;3.20;;;1.23;;
43182;SDS011;28802;38.578;-0.066;2022-12-18T07:11:18;4.70;;;1.37;;
43182;SDS011;28802;38.578;-0.066;2022-12-18T07:13:45;1.93;;;0.97;;
43182;SDS011;28802;38.578;-0.066;2022-12-18T07:16:14;4.47;;;1.30;;
43182;SDS011;28802;38.578;-0.066;2022-12-18T07:18:42;3.43;;;1.33;;
43182;SDS011;28802;38.578;-0.066;2022-12-18T07:21:09;3.30;;;1.10;;
43182;SDS011;28802;38.578;-0.066;2022-12-18T07:23:38;1.63;;;1.03;;
43182;SDS011;28802;38.578;-0.066;2022-12-18T07:26:05;2.97;;;1.07;;
43182;SDS011;28802;38.578;-0.066;2022-12-18T07:28:32;3.27;;;1.30;;
43182;SDS011;28802;38.578;-0.066;2022-12-18T07:31:08;4.40;;;1.40;;
43182;SDS011;28802;38.578;-0.066;2022-12-18T07:33:36;2.80;;;1.20;;
43182;SDS011;28802;38.578;-0.066;2022-12-18T07:36:03;3.43;;;1.43;;
43182;SDS011;28802;38.578;-0.066;2022-12-18T07:38:31;2.80;;;1.23;;
43182;SDS011;28802;38.578;-0.066;2022-12-18T07:41:05;10.87;;;1.20;;
43182;SDS011;28802;38.578;-0.066;2022-12-18T07:43:33;3.53;;;1.20;;
43182;SDS011;28802;38.578;-0.066;2022-12-18T07:46:00;2.53;;;1.03;;
43182;SDS011;28802;38.578;-0.066;2022-12-18T07:48:27;2.80;;;1.40;;
43182;SDS011;28802;38.578;-0.066;2022-12-18T07:50:57;4.27;;;1.53;;
43182;SDS011;28802;38.578;-0.066;2022-12-18T07:53:24;3.50;;;2.70;;
43182;SDS011;28802;38.578;-0.066;2022-12-18T07:55:54;4.90;;;3.53;;
43182;SDS011;28802;38.578;-0.066;2022-12-18T07:58:21;9.40;;;2.73;;
43182;SDS011;28802;38.578;-0.066;2022-12-18T08:00:47;3.60;;;2.20;;
43182;SDS011;28802;38.578;-0.066;2022-12-18T08:03:13;3.60;;;2.70;;
43182;SDS011;28802;38.578;-0.066;2022-12-18T08:05:39;3.13;;;2.23;;
43182;SDS011;28802;38.578;-0.066;2022-12-18T08:08:05;4.83;;;2.43;;
43182;SDS011;28802;38.578;-0.066;2022-12-18T08:10:31;6.97;;;2.30;;
43182;SDS011;28802;38.578;-0.066;2022-12-18T08:12:58;3.60;;;1.90;;
43182;SDS011;28802;38.578;-0.066;2022-12-18T08:15:24;2.40;;;1.87;;
43182;SDS011;28802;38.578;-0.066;2022-12-18T08:17:50;7.10;;;2.73;;
43182;SDS011;28802;38.578;-0.066;2022-12-18T08:20:16;7.13;;;3.90;;
43182;SDS011;28802;38.578;-0.066;2022-12-18T08:22:43;15.23;;;10.00;;
43182;SDS011;28802;38.578;-0.066;2022-12-18T08:25:09;15.50;;;5.97;;
43182;SDS011;28802;38.578;-0.066;2022-12-18T08:27:36;12.07;;;7.27;;
43182;SDS011;28802;38.578;-0.066;2022-12-18T08:30:02;7.10;;;2.90;;
43182;SDS011;28802;38.578;-0.066;2022-12-18T08:32:29;3.83;;;2.83;;
43182;SDS011;28802;38.578;-0.066;2022-12-18T08:34:55;7.83;;;3.50;;
43182;SDS011;28802;38.578;-0.066;2022-12-18T08:37:21;6.73;;;3.53;;
43182;SDS011;28802;38.578;-0.066;2022-12-18T08:39:47;4.67;;;2.80;;
43182;SDS011;28802;38.578;-0.066;2022-12-18T08:42:13;5.90;;;2.80;;
43182;SDS011;28802;38.578;-0.066;2022-12-18T08:45:02;4.90;;;2.30;;
43182;SDS011;28802;38.578;-0.066;2022-12-18T08:47:28;5.73;;;2.93;;
43182;SDS011;28802;38.578;-0.066;2022-12-18T08:49:54;5.73;;;3.50;;
43182;SDS011;28802;38.578;-0.066;2022-12-18T08:52:20;7.97;;;4.90;;
43182;SDS011;28802;38.578;-0.066;2022-12-18T08:54:46;8.95;;;4.75;;
43182;SDS011;28802;38.578;-0.066;2022-12-18T08:57:12;6.13;;;4.37;;
43182;SDS011;28802;38.578;-0.066;2022-12-18T08:59:38;6.13;;;4.30;;
43182;SDS011;28802;38.578;-0.066;2022-12-18T09:02:04;9.23;;;5.20;;
43182;SDS011;28802;38.578;-0.066;2022-12-18T09:04:30;12.80;;;8.40;;
43182;SDS011;28802;38.578;-0.066;2022-12-18T09:06:56;20.63;;;13.43;;
43182;SDS011;28802;38.578;-0.066;2022-12-18T09:09:22;14.27;;;9.63;;
43182;SDS011;28802;38.578;-0.066;2022-12-18T09:11:48;9.20;;;3.93;;
43182;SDS011;28802;38.578;-0.066;2022-12-18T09:14:14;7.50;;;5.20;;
43182;SDS011;28802;38.578;-0.066;2022-12-18T09:16:40;8.67;;;5.43;;
43182;SDS011;28802;38.578;-0.066;2022-12-18T09:19:06;11.60;;;6.20;;
43182;SDS011;28802;38.578;-0.066;2022-12-18T09:21:32;4.70;;;2.30;;
43182;SDS011;28802;38.578;-0.066;2022-12-18T09:24:03;4.77;;;2.80;;
43182;SDS011;28802;38.578;-0.066;2022-12-18T09:26:29;4.87;;;2.97;;
43182;SDS011;28802;38.578;-0.066;2022-12-18T09:28:55;3.63;;;2.50;;
43182;SDS011;28802;38.578;-0.066;2022-12-18T09:31:22;3.70;;;2.47;;
43182;SDS011;28802;38.578;-0.066;2022-12-18T09:33:49;4.60;;;2.60;;
43182;SDS011;28802;38.578;-0.066;2022-12-18T09:36:16;7.47;;;3.87;;
43182;SDS011;28802;38.578;-0.066;2022-12-18T09:38:45;5.40;;;3.50;;
43182;SDS011;28802;38.578;-0.066;2022-12-18T09:43:51;5.30;;;3.07;;
43182;SDS011;28802;38.578;-0.066;2022-12-18T09:46:23;7.60;;;3.57;;
43182;SDS011;28802;38.578;-0.066;2022-12-18T09:48:54;6.03;;;2.87;;
43182;SDS011;28802;38.578;-0.066;2022-12-18T09:51:27;7.93;;;3.50;;
43182;SDS011;28802;38.578;-0.066;2022-12-18T09:54:06;12.50;;;4.60;;
43182;SDS011;28802;38.578;-0.066;2022-12-18T09:56:42;6.63;;;4.10;;
43182;SDS011;28802;38.578;-0.066;2022-12-18T10:02:15;6.90;;;2.80;;
43182;SDS011;28802;38.578;-0.066;2022-12-18T10:04:48;2.50;;;1.93;;
43182;SDS011;28802;38.578;-0.066;2022-12-18T10:07:26;5.63;;;2.03;;
43182;SDS011;28802;38.578;-0.066;2022-12-18T10:13:15;7.23;;;2.37;;
43182;SDS011;28802;38.578;-0.066;2022-12-18T10:16:03;5.27;;;2.50;;
43182;SDS011;28802;38.578;-0.066;2022-12-18T10:18:58;3.90;;;1.90;;
43182;SDS011;28802;38.578;-0.066;2022-12-18T10:21:52;3.20;;;1.93;;
43182;SDS011;28802;38.578;-0.066;2022-12-18T10:24:42;11.07;;;5.23;;
43182;SDS011;28802;38.578;-0.066;2022-12-18T10:27:26;7.17;;;3.60;;
43182;SDS011;28802;38.578;-0.066;2022-12-18T10:29:52;7.60;;;1.20;;
43182;SDS011;28802;38.578;-0.066;2022-12-18T10:32:25;3.83;;;1.17;;
43182;SDS011;28802;38.578;-0.066;2022-12-18T10:34:55;8.23;;;2.50;;
43182;SDS011;28802;38.578;-0.066;2022-12-18T10:37:24;8.07;;;2.37;;
43182;SDS011;28802;38.578;-0.066;2022-12-18T10:40:11;7.90;;;2.80;;
43182;SDS011;28802;38.578;-0.066;2022-12-18T10:42:41;9.77;;;2.50;;
43182;SDS011;28802;38.578;-0.066;2022-12-18T10:47:35;9.60;;;3.07;;
43182;SDS011;28802;38.578;-0.066;2022-12-18T10:50:00;3.83;;;1.70;;
43182;SDS011;28802;38.578;-0.066;2022-12-18T10:52:27;7.43;;;2.80;;
43182;SDS011;28802;38.578;-0.066;2022-12-18T10:54:54;7.30;;;1.90;;
43182;SDS011;28802;38.578;-0.066;2022-12-18T10:57:31;4.00;;;1.80;;
43182;SDS011;28802;38.578;-0.066;2022-12-18T11:00:24;4.87;;;1.97;;
43182;SDS011;28802;38.578;-0.066;2022-12-18T11:02:53;5.43;;;2.00;;
43182;SDS011;28802;38.578;-0.066;2022-12-18T11:05:30;6.53;;;2.30;;
43182;SDS011;28802;38.578;-0.066;2022-12-18T11:07:57;2.53;;;1.30;;
43182;SDS011;28802;38.578;-0.066;2022-12-18T11:10:32;9.90;;;2.73;;
43182;SDS011;28802;38.578;-0.066;2022-12-18T11:13:16;6.83;;;2.33;;
43182;SDS011;28802;38.578;-0.066;2022-12-18T11:15:43;12.53;;;5.20;;
43182;SDS011;28802;38.578;-0.066;2022-12-18T11:18:24;6.77;;;2.60;;
43182;SDS011;28802;38.578;-0.066;2022-12-18T11:21:08;4.50;;;1.90;;
43182;SDS011;28802;38.578;-0.066;2022-12-18T11:23:37;5.97;;;2.20;;
43182;SDS011;28802;38.578;-0.066;2022-12-18T11:26:11;9.20;;;2.73;;
43182;SDS011;28802;38.578;-0.066;2022-12-18T11:33:59;4.60;;;2.63;;
43182;SDS011;28802;38.578;-0.066;2022-12-18T11:36:25;5.87;;;2.47;;
43182;SDS011;28802;38.578;-0.066;2022-12-18T11:38:56;4.67;;;1.40;;
43182;SDS011;28802;38.578;-0.066;2022-12-18T11:41:36;4.33;;;2.40;;
43182;SDS011;28802;38.578;-0.066;2022-12-18T11:44:35;4.00;;;1.40;;
43182;SDS011;28802;38.578;-0.066;2022-12-18T11:47:21;3.83;;;1.10;;
43182;SDS011;28802;38.578;-0.066;2022-12-18T11:49:52;4.13;;;1.50;;
43182;SDS011;28802;38.578;-0.066;2022-12-18T11:52:31;2.63;;;1.40;;
43182;SDS011;28802;38.578;-0.066;2022-12-18T11:55:07;33.87;;;8.23;;
43182;SDS011;28802;38.578;-0.066;2022-12-18T12:00:18;3.00;;;1.33;;
43182;SDS011;28802;38.578;-0.066;2022-12-18T12:11:21;6.77;;;1.97;;
43182;SDS011;28802;38.578;-0.066;2022-12-18T12:25:19;2.73;;;1.00;;
43182;SDS011;28802;38.578;-0.066;2022-12-18T12:38:57;3.97;;;1.80;;
43182;SDS011;28802;38.578;-0.066;2022-12-18T12:41:27;6.00;;;1.97;;
43182;SDS011;28802;38.578;-0.066;2022-12-18T12:44:32;10.50;;;2.40;;
43182;SDS011;28802;38.578;-0.066;2022-12-18T12:47:09;2.60;;;0.90;;
43182;SDS011;28802;38.578;-0.066;2022-12-18T12:49:44;7.50;;;2.60;;
43182;SDS011;28802;38.578;-0.066;2022-12-18T12:55:21;14.13;;;3.47;;
43182;SDS011;28802;38.578;-0.066;2022-12-18T13:00:24;5.50;;;2.00;;
43182;SDS011;28802;38.578;-0.066;2022-12-18T13:05:49;22.23;;;7.70;;
43182;SDS011;28802;38.578;-0.066;2022-12-18T13:08:26;22.83;;;8.30;;
43182;SDS011;28802;38.578;-0.066;2022-12-18T13:10:58;9.73;;;3.57;;
43182;SDS011;28802;38.578;-0.066;2022-12-18T13:13:50;15.47;;;6.30;;
43182;SDS011;28802;38.578;-0.066;2022-12-18T13:16:21;3.40;;;1.37;;
43182;SDS011;28802;38.578;-0.066;2022-12-18T13:18:50;32.90;;;7.80;;
43182;SDS011;28802;38.578;-0.066;2022-12-18T13:21:25;36.47;;;9.50;;
43182;SDS011;28802;38.578;-0.066;2022-12-18T13:23:54;21.37;;;6.83;;
43182;SDS011;28802;38.578;-0.066;2022-12-18T13:26:28;10.10;;;3.50;;
43182;SDS011;28802;38.578;-0.066;2022-12-18T13:28:56;7.10;;;2.60;;
43182;SDS011;28802;38.578;-0.066;2022-12-18T13:43:01;21.63;;;6.47;;
43182;SDS011;28802;38.578;-0.066;2022-12-18T13:45:43;2.63;;;0.77;;
43182;SDS011;28802;38.578;-0.066;2022-12-18T13:48:16;2.10;;;0.90;;
43182;SDS011;28802;38.578;-0.066;2022-12-18T13:51:04;6.43;;;1.40;;
43182;SDS011;28802;38.578;-0.066;2022-12-18T13:53:34;10.40;;;3.67;;
43182;SDS011;28802;38.578;-0.066;2022-12-18T13:56:04;3.57;;;1.47;;
43182;SDS011;28802;38.578;-0.066;2022-12-18T13:58:31;6.70;;;2.20;;
43182;SDS011;28802;38.578;-0.066;2022-12-18T14:00:57;8.73;;;2.67;;
43182;SDS011;28802;38.578;-0.066;2022-12-18T14:03:25;3.70;;;1.70;;
43182;SDS011;28802;38.578;-0.066;2022-12-18T14:05:57;4.27;;;1.40;;
43182;SDS011;28802;38.578;-0.066;2022-12-18T14:08:27;8.47;;;3.57;;
43182;SDS011;28802;38.578;-0.066;2022-12-18T14:11:01;8.73;;;2.43;;
43182;SDS011;28802;38.578;-0.066;2022-12-18T14:13:29;6.20;;;1.60;;
43182;SDS011;28802;38.578;-0.066;2022-12-18T14:16:00;1.83;;;0.73;;
43182;SDS011;28802;38.578;-0.066;2022-12-18T14:20:58;10.30;;;1.83;;
43182;SDS011;28802;38.578;-0.066;2022-12-18T14:23:35;5.90;;;1.63;;
43182;SDS011;28802;38.578;-0.066;2022-12-18T14:28:47;4.80;;;1.63;;
43182;SDS011;28802;38.578;-0.066;2022-12-18T14:31:20;2.50;;;1.30;;
43182;SDS011;28802;38.578;-0.066;2022-12-18T14:33:50;3.23;;;1.00;;
43182;SDS011;28802;38.578;-0.066;2022-12-18T14:36:18;3.40;;;1.07;;
43182;SDS011;28802;38.578;-0.066;2022-12-18T14:38:49;6.10;;;1.67;;
43182;SDS011;28802;38.578;-0.066;2022-12-18T14:41:18;5.90;;;1.43;;
43182;SDS011;28802;38.578;-0.066;2022-12-18T14:43:46;11.43;;;3.50;;
43182;SDS011;28802;38.578;-0.066;2022-12-18T14:46:29;8.47;;;3.33;;
43182;SDS011;28802;38.578;-0.066;2022-12-18T14:48:55;9.63;;;3.23;;
43182;SDS011;28802;38.578;-0.066;2022-12-18T14:51:23;5.23;;;1.63;;
43182;SDS011;28802;38.578;-0.066;2022-12-18T14:53:56;6.30;;;1.80;;
43182;SDS011;28802;38.578;-0.066;2022-12-18T14:56:26;10.43;;;3.80;;
43182;SDS011;28802;38.578;-0.066;2022-12-18T14:59:03;4.20;;;1.97;;
43182;SDS011;28802;38.578;-0.066;2022-12-18T15:04:36;7.57;;;2.07;;
43182;SDS011;28802;38.578;-0.066;2022-12-18T15:09:36;4.73;;;1.70;;
43182;SDS011;28802;38.578;-0.066;2022-12-18T15:12:03;7.30;;;2.60;;
43182;SDS011;28802;38.578;-0.066;2022-12-18T15:17:00;7.83;;;2.43;;
43182;SDS011;28802;38.578;-0.066;2022-12-18T15:19:38;5.97;;;2.37;;
43182;SDS011;28802;38.578;-0.066;2022-12-18T15:22:19;5.77;;;3.30;;
43182;SDS011;28802;38.578;-0.066;2022-12-18T15:24:53;9.50;;;2.17;;
43182;SDS011;28802;38.578;-0.066;2022-12-18T15:27:21;4.17;;;1.10;;
43182;SDS011;28802;38.578;-0.066;2022-12-18T15:32:38;3.50;;;1.90;;
43182;SDS011;28802;38.578;-0.066;2022-12-18T15:37:37;6.23;;;1.50;;
43182;SDS011;28802;38.578;-0.066;2022-12-18T15:40:05;6.73;;;1.93;;
43182;SDS011;28802;38.578;-0.066;2022-12-18T15:42:33;4.07;;;1.20;;
43182;SDS011;28802;38.578;-0.066;2022-12-18T15:45:17;6.33;;;1.90;;
43182;SDS011;28802;38.578;-0.066;2022-12-18T15:47:43;5.23;;;2.13;;
43182;SDS011;28802;38.578;-0.066;2022-12-18T15:50:09;4.73;;;1.97;;
43182;SDS011;28802;38.578;-0.066;2022-12-18T15:52:40;8.90;;;3.40;;
43182;SDS011;28802;38.578;-0.066;2022-12-18T15:55:13;5.60;;;2.00;;
43182;SDS011;28802;38.578;-0.066;2022-12-18T15:57:59;4.63;;;1.87;;
43182;SDS011;28802;38.578;-0.066;2022-12-18T16:00:25;7.00;;;2.33;;
43182;SDS011;28802;38.578;-0.066;2022-12-18T16:02:51;3.73;;;1.53;;
43182;SDS011;28802;38.578;-0.066;2022-12-18T16:05:17;7.57;;;2.90;;
43182;SDS011;28802;38.578;-0.066;2022-12-18T16:07:45;4.97;;;1.60;;
43182;SDS011;28802;38.578;-0.066;2022-12-18T16:10:13;4.80;;;1.33;;
43182;SDS011;28802;38.578;-0.066;2022-12-18T16:12:39;3.37;;;1.60;;
43182;SDS011;28802;38.578;-0.066;2022-12-18T16:15:06;9.77;;;1.93;;
43182;SDS011;28802;38.578;-0.066;2022-12-18T16:17:33;13.70;;;2.07;;
43182;SDS011;28802;38.578;-0.066;2022-12-18T16:19:59;7.33;;;3.03;;
43182;SDS011;28802;38.578;-0.066;2022-12-18T16:22:27;4.03;;;1.90;;
43182;SDS011;28802;38.578;-0.066;2022-12-18T16:24:54;6.00;;;2.40;;
43182;SDS011;28802;38.578;-0.066;2022-12-18T16:27:21;5.77;;;2.10;;
43182;SDS011;28802;38.578;-0.066;2022-12-18T16:29:49;7.90;;;2.63;;
43182;SDS011;28802;38.578;-0.066;2022-12-18T16:32:16;5.83;;;2.70;;
43182;SDS011;28802;38.578;-0.066;2022-12-18T16:34:44;5.93;;;2.80;;
43182;SDS011;28802;38.578;-0.066;2022-12-18T16:37:11;12.07;;;3.17;;
43182;SDS011;28802;38.578;-0.066;2022-12-18T16:39:38;13.20;;;3.57;;
43182;SDS011;28802;38.578;-0.066;2022-12-18T16:42:15;4.83;;;2.87;;
43182;SDS011;28802;38.578;-0.066;2022-12-18T16:44:44;7.77;;;3.10;;
43182;SDS011;28802;38.578;-0.066;2022-12-18T16:47:15;7.80;;;3.10;;